Season 21
 
 
 

TWL – Player Statistics
 


Seasons: 1 - 2 - 3 - 4 - 5 - 6 - 7 - 8 - 9 - 10 - 11 - 12 - 13 - 14 - 15 - 16 - 17 - 18 - 19 - 20 - 21

Leagues: All Leagues - TWLD - TWLJ - TWLB

Ships: All ships - Warbird - Javelin - Spider - Terrier - Lancaster - Shark

Player Squad G R W L AVK HW AVD AVP RT LO SUB TP
JAMAL dicE 12 12 1228 645 102 132 54 16051 288032 1 0 5:53:21
megaman89 dicE 12 12 1076 562 98 135 50 15853 232945 0 0 5:25:12
hellkite Respect 11 11 866 669 79 117 61 13072 107382 0 0 5:07:58
Stayon dicE 12 12 860 442 72 106 37 12741 154823 5 4 5:05:14
cripple Respect 9 9 951 524 106 129 58 16659 240199 1 0 4:17:06
Solacer Anti-Scrub 8 8 693 504 87 129 63 10142 90084 0 0 4:06:58
NL>Trigger sage 8 8 705 501 88 108 63 14047 95150 1 0 4:05:03
TURBAN Mad 9 9 715 495 79 103 55 12309 109896 0 0 4:03:19
jatt Brainwave 9 9 610 503 68 92 56 9043 45602 1 1 4:00:43
renzi dicE 8 8 615 333 77 99 42 13634 105607 0 2 3:52:12
Leitz Penetrate 8 8 597 540 75 116 68 10222 51855 0 0 3:50:48
RUCCI Brainwave 8 8 753 449 94 135 56 10659 131065 0 1 3:42:39
Paegus Rapid 7 7 608 381 87 120 54 11581 99577 2 1 3:39:10
jr5 Anti-Scrub 7 7 591 435 88 120 69 12487 70097 3 0 3:31:47
Burnt Thunder 7 7 604 392 86 126 56 11277 84788 0 0 3:31:20
zhou Penetrate 8 8 557 407 72 108 52 10530 81637 0 0 3:24:56
Gazo sage 6 6 593 391 99 112 65 14463 97552 0 0 3:13:29
turmio Penetrate 7 7 515 376 74 107 54 9391 49981 3 0 3:11:54
glavitik Respect 7 7 543 390 78 94 56 11842 69540 0 0 3:11:12
Remu Mad 6 6 676 452 113 130 75 15677 127968 0 0 3:05:50
POXY Mad 6 6 499 351 83 97 59 12324 66540 2 0 2:54:56
Pressure Drop Anti-Scrub 6 6 452 332 76 121 55 9829 68827 1 0 2:47:05
Dutch Baser Brainwave 7 7 460 386 69 133 56 8565 43659 1 0 2:45:55
Spikey sage 6 6 511 377 90 113 65 15232 74983 0 1 2:44:27
Epic li Anti-Scrub 6 6 421 289 70 105 48 8796 49772 4 1 2:43:37
Mess dicE 6 6 502 306 84 109 51 13523 90152 0 0 2:40:33
Ease Thunder 6 6 456 364 76 102 69 10242 48828 1 1 2:35:41
Displaced Rapid 5 5 461 338 92 123 68 11982 58863 2 1 2:35:09
Arobas+ Rapid 6 6 448 331 78 102 56 10197 50051 1 0 2:35:03
Golden_Aim Rapid 5 5 359 357 68 98 72 10976 13780 0 1 2:27:50
vys Mad 5 5 440 270 88 109 54 13765 82641 0 0 2:20:20
Kawrae sage 5 5 401 222 80 107 44 13709 89570 0 1 2:17:42
humid Thunder 5 5 388 226 78 112 45 10487 70398 0 0 2:15:46
Spezza Respect 6 6 369 227 62 93 38 9771 48825 0 0 2:10:35
squallFF8 Respect 5 5 309 233 62 92 47 10362 35365 1 1 2:07:41
Whimp sage 4 4 317 198 81 90 50 15735 49966 0 0 2:07:07
Vehicle Anti-Scrub 4 4 301 211 75 98 53 8953 31293 0 0 2:05:29
Raples Thunder 5 5 333 254 73 107 52 10118 40869 0 1 1:57:05
Zung Respect 5 5 371 204 74 119 41 12242 72009 0 1 1:51:54
HUR Brainwave 4 4 335 254 84 104 64 11783 38691 0 0 1:50:05
Lifter Rapid 4 4 317 228 79 110 57 10667 41609 0 0 1:44:22
diakka Respect 5 5 282 146 65 108 31 10097 50585 0 0 1:39:28
fit of rage Penetrate 4 4 271 184 68 95 46 11101 43866 0 0 1:35:58
Hulk Rapid 4 4 218 209 55 103 52 7626 12485 0 1 1:35:49
Trouper sage 4 4 257 227 64 94 57 9701 20489 4 0 1:32:00
tj hazuki Brainwave 4 4 238 223 60 80 56 8681 15859 0 1 1:28:19
i, robot sage 4 4 243 150 61 79 38 10775 41361 0 0 1:26:31
Eelam Respect 3 3 265 152 88 114 51 15065 48499 0 0 1:25:36
Evul Respect 3 3 276 113 92 114 38 15415 68029 0 0 1:23:16
Sprained Anti-Scrub 4 4 195 164 49 96 42 5324 14671 0 1 1:20:05
Minotar Penetrate 3 3 215 156 72 100 52 7469 20407 0 0 1:20:02
struck Penetrate 3 3 259 176 86 111 59 12200 40115 0 0 1:18:04
FarScape Brainwave 3 3 207 197 69 87 66 9871 9223 0 0 1:12:01
exotic Anti-Scrub 2 2 200 156 100 119 78 13986 24703 0 0 1:11:16
Jari10 sage 3 3 244 127 93 109 50 15571 54665 0 0 1:10:57
Domi dicE 3 3 253 95 94 105 42 15676 66896 2 1 1:10:48
herbalist yangyun Rapid 3 3 245 191 82 103 64 12418 26484 0 1 1:10:45
Trasher Brainwave 3 3 178 142 59 91 47 8384 24554 0 1 1:09:58
Necromotic Thunder 4 4 294 192 105 143 82 19535 59707 0 0 1:09:33
sarger Respect 2 2 246 134 123 125 67 17964 58548 0 0 1:05:59
Fludd Thunder 3 3 158 157 60 69 57 9607 5983 0 0 1:05:41
blood Mad 3 3 213 165 71 103 55 10292 19742 2 1 1:04:30
Baron Munchausen Rapid 2 2 220 133 110 119 67 14758 38347 0 0 1:03:53
avatar Rapid 3 3 200 94 67 103 31 7628 33779 0 0 1:02:41
Caos dicE 3 3 193 120 64 76 40 10866 26365 0 1 1:02:01
ro Mad 2 2 203 140 102 111 70 10570 23718 0 0 1:01:51
Downfall Brainwave 3 3 141 123 47 98 54 7455 5974 3 1 1:00:07
Seriel Killer TechuniquE 2 2 122 90 61 87 45 5545 8750 1 0 0:59:20
Undercut TechuniquE 2 2 115 98 58 75 49 5351 7815 1 0 0:59:08
cremation Thunder 2 2 149 125 75 96 63 11278 15063 0 1 0:58:42
Lai Anti-Scrub 2 2 142 106 71 81 53 7596 12932 0 1 0:57:56
Vain Rapid 3 3 164 119 55 98 40 6146 14989 1 1 0:57:41
shayde dicE 2 2 151 89 76 78 45 14061 25576 0 0 0:57:28
RONNY Mad 2 2 181 107 91 107 54 12476 34726 0 0 0:57:11
Nethila Thunder 2 2 144 98 72 98 49 11273 20665 2 1 0:56:40
Kian Thunder 2 2 154 115 77 103 58 12094 18402 0 0 0:56:11
Mega Newbie Rapid 2 2 137 113 69 105 57 8914 12549 2 1 0:55:44
Cumulonimbus Penetrate 2 2 179 107 90 94 54 13240 28790 0 0 0:55:03
Sir Chrono Thunder 2 2 142 103 71 76 52 9011 13481 0 0 0:54:18
kess sage 2 2 118 105 59 73 53 9762 7500 1 2 0:54:11
the_paul Brainwave 3 3 122 105 41 50 35 4921 6254 0 2 0:51:02
scoop Mad 3 3 121 91 41 68 30 6103 7178 0 0 0:50:38
M_M God Mad 4 4 181 88 64 117 47 10237 32555 3 1 0:50:17
royst Penetrate 3 3 127 96 44 83 60 3487 6985 2 0 0:48:16
AcidBomber Brainwave 4 4 108 73 45 92 87 7779 15310 0 0 0:45:15
wbm Respect 2 2 142 77 71 91 39 13748 24783 0 0 0:43:17
Raspi Thunder 2 2 107 98 54 83 49 7220 5588 0 0 0:38:45
Racist FUK Brainwave 2 2 97 83 50 64 77 7447 7094 0 0 0:35:08
sCHOPe NORRIS Brainwave 1 1 115 64 115 115 64 15747 26725 0 0 0:34:29
lunch3 Penetrate 1 1 98 72 98 98 72 12611 10517 0 0 0:34:03
CONFLUENCE Mad 1 1 102 59 102 102 59 15510 18562 0 0 0:33:06
DF Rapid 1 1 73 101 73 73 101 12306 -3238 0 0 0:32:41
dald Thunder 1 1 83 56 83 83 56 11711 10240 5 0 0:32:27
Pardon TechuniquE 1 1 75 72 75 75 72 8508 2460 0 0 0:32:06
temporary TechuniquE 1 1 83 48 83 83 48 10863 10597 0 0 0:32:04
chuckle Thunder 1 1 97 70 97 97 70 12849 12905 0 0 0:31:56
fizzy Thunder 1 1 77 73 77 77 73 9058 2373 0 0 0:30:42
CHARS! Rapid 1 1 57 62 57 57 62 7630 1278 0 0 0:30:25
Nimesh Penetrate 1 1 116 50 116 116 50 14932 30933 0 0 0:30:23
paska dicE 1 1 68 49 68 68 49 13125 10169 0 0 0:30:19
delta Respect 1 1 106 50 106 106 50 15776 25222 0 0 0:29:47
Lebram James Mad 1 1 78 61 78 78 61 14914 8894 0 0 0:29:01
Rule Mad 1 1 53 52 53 53 52 4184 1164 0 0 0:28:13
FieryFire dicE 1 1 84 33 84 84 33 17359 27538 0 0 0:27:03
Butt Hash TechuniquE 1 1 35 59 35 35 59 1772 -396 0 0 0:26:58
FiftySeven Respect 1 1 80 26 80 80 26 14604 23121 0 0 0:26:43
pavement Anti-Scrub 1 1 69 54 69 69 54 5607 4404 0 0 0:26:34
ALeMan Brainwave 2 2 64 70 32 46 35 4762 348 0 2 0:26:08
Amputate Thunder 1 1 76 56 76 76 56 4974 3304 0 0 0:25:56
Pure_Luck Thunder 3 3 52 68 23 52 28 5084 -457 2 2 0:25:46
saetep Rapid 1 1 61 61 61 61 61 6890 1885 0 1 0:25:39
Reaver Thunder 2 2 42 39 29 42 74 3261 975 0 0 0:24:25
broofus Penetrate 1 1 93 43 93 93 43 15742 21270 0 0 0:23:59
zeebu Penetrate 1 1 74 45 74 74 45 5460 4868 0 0 0:23:07
tim dicE 1 1 54 35 66 54 42 8907 4639 0 0 0:21:27
Da1andonly dicE 3 3 76 31 25 61 10 5431 11083 0 0 0:20:50
HandofDeath sage 1 1 47 29 47 47 29 10784 4813 0 0 0:20:38
Salu Anti-Scrub 1 1 44 36 48 44 36 2443 1161 0 0 0:20:21
moltenrock Anti-Scrub 1 1 41 44 44 41 44 2787 580 0 0 0:19:38
Whinegum TechuniquE 1 1 47 40 47 47 40 3631 1410 0 0 0:19:32
RageRitual TechuniquE 1 1 27 30 38 27 63 5388 102 0 0 0:18:32
Dreamfly Mad 1 1 27 46 27 27 46 2053 -358 0 1 0:17:54
FluB Brainwave 2 2 52 58 26 35 29 4374 559 0 1 0:16:07
solidify Mad 1 1 17 23 17 17 23 1103 30 0 1 0:14:36
EvilDeed Mad 1 1 41 38 41 41 38 4152 1195 0 0 0:14:26
Sufficient Anti-Scrub 1 1 33 31 36 33 31 1930 543 0 0 0:14:15
MeDDi Brainwave 2 2 9 7 14 9 90 3210 109 0 0 0:13:49
miDoeNT TechuniquE 1 1 51 31 57 51 75 5081 2489 0 0 0:13:16
Frank The Tank! Brainwave 2 2 44 33 22 36 17 4948 2935 0 0 0:12:42
Dead_Rain Penetrate 4 4 0 0 34 0 10 5955 0 1 0 0:12:26
Inaphyt TechuniquE 1 1 2 3 2 2 3 421 -3 1 0 0:08:24
Cape dicE 1 1 30 18 55 30 26 8155 1159 0 0 0:08:07
Pappa Brainwave 1 1 27 27 27 27 61 3252 448 0 0 0:08:04
ffe TechuniquE 1 1 0 0 8 0 69 1728 0 1 0 0:07:33
fermata Penetrate 1 1 0 0 2 0 1 1215 0 1 1 0:06:55
Booyah Brainwave 1 1 15 12 15 15 12 792 139 0 1 0:06:32
milpitas Brainwave 1 1 16 18 16 16 18 3014 40 0 0 0:06:29
Teh Super Anti-Scrub 2 2 10 8 7 10 63 1475 135 2 0 0:05:04
poseidon Rapid 2 2 14 12 9 14 50 1302 41 0 0 0:04:36
Valcrist Penetrate 1 1 4 5 4 4 5 3054 9 0 1 0:03:48
Vergilius sage 1 1 14 11 14 14 11 225 18 0 0 0:02:52
Draft Thunder 2 2 5 4 16 4 5 3661 19 0 0 0:02:49
violence Rapid 1 1 6 7 6 6 7 1080 -5 0 0 0:01:55
Zizzo Mad 1 1 6 9 33 6 21 4666 -13 0 0 0:01:53
veLOce Penetrate 1 1 0 0 9 0 65 1546 0 0 0 0:01:20
Duel Pasta Penetrate 1 1 0 0 3 0 66 412 0 0 0 0:01:09
Plenty O`Toole Penetrate 1 1 5 1 5 5 1 246 34 0 1 0:00:59
Yakuza Thunder 1 1 0 2 0 0 3 1200 -48 0 1 0:00:29
dreamwin Respect 1 1 0 0 12 0 8 1047 0 0 1 0:00:22
grandmastahs dicE 1 1 0 1 0 0 1 0 0 0 0 0:00:17
Oh Snap Son Its Joe sage 2 2 0 0 8 0 93 4848 0 0 0 0:00:10
maketso dicE 1 1 1 1 1 1 1 209 0 0 0 0:00:06
Vatican Assassin Respect 1 1 0 0 16 0 93 5983 0 0 0 0:00:03
Cig Smoke dicE 1 1 0 0 13 0 69 5112 0 0 0 0:00:03

 
 

Central: Pacific: Eastern:
London: New Zealand: Australia:
Helsinki: Brazil: Netherlands: